Waukee, Iowa
Current Conditions -  °F | °C
As of 7:54 PM on Thursday 20 Nov 2014 (Local Time) from KDSM Reporting Station
Clear Clear  
Wind Chill: 15°   Ceiling: Unl
Heat Index: 21°   Visibility: 10mi
Dew Point: 11°   Wind: 5mph
Humidity: 65%   Direction: 10°N
Pressure: 30.27"   Gusts: NA
Location:  41.61°N, 93.89°W
Report Text: KDSM 210154Z 01004KT 10SM CLR M06/M12 A3027 RMK AO2 SLP265 T10611117
Loading
Personal Weather Stations






























Interactive Weather Map New forecast layout! Learn more

10-Day Weather Forecast

Advertisements
Track Severe Weather on mobile